Time;durP1;ratioP1;P1;durP2;ratioP2;P2;SDS_P1;SDS_P2;PMS_P1;PMS_P2;Temp;Humidity;BMP_temperature;BMP_pressure;BME280_temperature;BME280_humidity;BME280_pressure;Samples;Min_cycle;Max_cycle;Signal;HPM_P1;HPM_P2
2022/10/29 00:00:02;;;;;;;15.70;9.10;;;;;;;18.42;62.47;101553.84;832984;23;1114;-73
2022/10/29 00:00:30;;;;;;;18.50;9.35;;;;;;;18.46;62.58;101561.84;828089;23;1489;-73
2022/10/29 00:00:54;;;;;;;17.98;9.13;;;;;;;18.64;62.02;101561.06;824046;23;1205;-74
2022/10/29 00:01:15;;;;;;;14.70;8.40;;;;;;;18.76;61.62;101562.03;823941;24;1015;-73
2022/10/29 00:01:35;;;;;;;17.63;8.90;;;;;;;18.68;61.71;101563.75;820475;24;1278;-73
2022/10/29 00:01:56;;;;;;;21.42;9.35;;;;;;;18.56;62.05;101557.47;824272;24;1011;-73
2022/10/29 00:02:16;;;;;;;20.40;9.20;;;;;;;18.53;62.17;101549.53;821415;24;1181;-73
2022/10/29 00:02:37;;;;;;;18.17;8.82;;;;;;;18.55;61.97;101552.19;821295;24;825;-73
2022/10/29 00:02:58;;;;;;;18.13;8.85;;;;;;;18.59;62.29;101567.19;829200;23;1017;-73
2022/10/29 00:03:19;;;;;;;19.17;9.20;;;;;;;18.56;61.92;101553.97;831841;23;1106;-74
2022/10/29 00:03:41;;;;;;;19.48;9.65;;;;;;;18.60;62.10;101568.97;832092;23;819;-73
2022/10/29 00:04:02;;;;;;;16.50;9.30;;;;;;;18.62;61.99;101561.91;831760;23;1408;-74
2022/10/29 00:04:23;;;;;;;15.93;9.30;;;;;;;18.63;61.90;101561.06;831798;23;1113;-74
2022/10/29 00:04:44;;;;;;;14.60;8.93;;;;;;;18.63;61.99;101559.28;832416;23;788;-73
2022/10/29 00:05:05;;;;;;;15.77;9.35;;;;;;;18.68;61.88;101563.75;828779;23;1062;-74
2022/10/29 00:05:26;;;;;;;16.73;9.48;;;;;;;18.69;62.08;101568.16;830153;23;923;-73
2022/10/29 00:06:09;;;;;;;17.37;9.40;;;;;;;18.73;61.89;101559.34;833799;23;739;-73
2022/10/29 00:06:30;;;;;;;15.23;8.15;;;;;;;18.78;61.67;101554.97;837156;23;779;-74
2022/10/29 00:06:51;;;;;;;13.87;8.20;;;;;;;18.91;61.25;101556.84;835706;23;1393;-74
2022/10/29 00:07:13;;;;;;;15.35;8.88;;;;;;;18.77;61.47;101553.22;831887;23;1465;-73
2022/10/29 00:07:33;;;;;;;17.15;9.10;;;;;;;18.82;61.56;101567.38;831971;23;1159;-73
2022/10/29 00:07:54;;;;;;;18.93;9.20;;;;;;;18.77;61.55;101564.66;833162;23;1061;-73
2022/10/29 00:08:15;;;;;;;17.35;9.00;;;;;;;18.73;61.73;101560.25;828735;23;1598;-73
2022/10/29 00:08:37;;;;;;;17.63;9.43;;;;;;;18.75;61.82;101561.13;828161;23;811;-73
2022/10/29 00:08:58;;;;;;;18.73;9.50;;;;;;;18.75;61.51;101560.25;828991;23;1944;-73
2022/10/29 00:09:18;;;;;;;17.30;9.18;;;;;;;18.71;61.50;101554.06;828819;23;1011;-74
2022/10/29 00:09:39;;;;;;;16.80;9.20;;;;;;;18.71;61.69;101555.81;831348;23;1418;-73
2022/10/29 00:10:01;;;;;;;14.43;8.95;;;;;;;18.68;61.61;101553.16;828797;23;1387;-73
2022/10/29 00:10:22;;;;;;;15.10;8.82;;;;;;;18.68;61.71;101553.16;827516;23;1380;-73
2022/10/29 00:10:43;;;;;;;14.50;8.77;;;;;;;18.64;61.65;101555.78;829303;23;732;-73
2022/10/29 00:11:15;;;;;;;14.02;8.50;;;;;;;18.70;61.67;101560.25;827048;23;1347;-73
2022/10/29 00:11:36;;;;;;;15.07;8.30;;;;;;;18.63;61.67;101556.66;828905;23;819;-73
2022/10/29 00:11:56;;;;;;;15.98;8.40;;;;;;;18.57;61.78;101551.31;822822;24;1144;-73
2022/10/29 00:12:17;;;;;;;16.02;8.63;;;;;;;18.59;61.90;101546.94;827830;23;1145;-73
2022/10/29 00:12:38;;;;;;;18.30;9.13;;;;;;;18.55;61.87;101546.91;824223;24;1187;-73
2022/10/29 00:13:01;;;;;;;18.15;8.95;;;;;;;18.54;61.76;101546.00;831585;23;1219;-73
2022/10/29 00:13:22;;;;;;;19.65;9.00;;;;;;;18.55;61.84;101546.91;831984;23;835;-72
2022/10/29 00:13:55;;;;;;;15.63;8.30;;;;;;;18.59;61.90;101549.59;828100;23;779;-72
2022/10/29 00:14:16;;;;;;;15.15;8.10;;;;;;;18.55;62.01;101542.50;829293;23;1101;-73
2022/10/29 00:14:36;;;;;;;17.65;8.55;;;;;;;18.54;62.18;101550.41;829313;23;952;-73
2022/10/29 00:14:57;;;;;;;16.15;8.50;;;;;;;18.53;62.14;101548.63;832746;23;895;-73
2022/10/29 00:15:18;;;;;;;15.18;8.40;;;;;;;18.52;62.01;101558.34;830925;23;1042;-73
2022/10/29 00:15:40;;;;;;;13.13;8.50;;;;;;;18.52;62.21;101557.44;827206;23;1225;-73
2022/10/29 00:16:08;;;;;;;14.67;9.00;;;;;;;18.50;62.08;101549.50;827856;23;1003;-73
2022/10/29 00:16:38;;;;;;;19.45;9.30;;;;;;;18.46;62.01;101545.06;829421;23;751;-73
2022/10/29 00:16:59;;;;;;;19.20;8.80;;;;;;;18.48;62.05;101559.19;827907;23;1030;-73
2022/10/29 00:17:20;;;;;;;15.98;8.88;;;;;;;18.44;62.10;101554.75;827983;23;1202;-73
2022/10/29 00:17:41;;;;;;;14.40;8.85;;;;;;;18.45;62.19;101551.25;833241;23;872;-73
2022/10/29 00:18:01;;;;;;;14.83;9.30;;;;;;;18.46;62.31;101566.22;831781;23;1161;-72
2022/10/29 00:18:23;;;;;;;14.70;8.93;;;;;;;18.44;62.30;101552.13;827916;23;1434;-73
2022/10/29 00:18:45;;;;;;;16.02;8.80;;;;;;;18.45;62.37;101556.53;828047;23;1351;-73
2022/10/29 00:19:08;;;;;;;16.30;8.70;;;;;;;18.43;62.62;101555.63;827840;23;1269;-72
2022/10/29 00:19:28;;;;;;;15.70;9.05;;;;;;;18.50;62.48;101566.25;829112;23;915;-73
2022/10/29 00:19:49;;;;;;;17.20;9.80;;;;;;;18.45;62.56;101564.47;832783;23;736;-73
2022/10/29 00:20:10;;;;;;;17.27;9.27;;;;;;;18.45;62.64;101556.53;833127;23;1148;-73
2022/10/29 00:20:31;;;;;;;17.40;8.90;;;;;;;18.46;62.39;101563.56;833428;23;756;-73
2022/10/29 00:20:59;;;;;;;16.65;8.73;;;;;;;18.44;62.41;101555.63;833751;23;1056;-73
2022/10/29 00:21:30;;;;;;;18.60;9.10;;;;;;;18.42;62.34;101543.28;835920;23;1453;-73
2022/10/29 00:21:51;;;;;;;19.15;9.43;;;;;;;18.47;62.36;101554.78;827943;23;1047;-73
2022/10/29 00:22:12;;;;;;;18.65;9.10;;;;;;;18.46;62.36;101553.00;828136;23;1138;-73
2022/10/29 00:22:32;;;;;;;20.70;9.60;;;;;;;18.47;62.36;101555.66;829407;23;685;-73
2022/10/29 00:22:53;;;;;;;19.60;9.70;;;;;;;18.44;62.23;101544.19;829261;23;1082;-73
2022/10/29 00:23:14;;;;;;;19.25;9.75;;;;;;;18.51;62.48;101551.28;826489;23;1219;-73
2022/10/29 00:23:35;;;;;;;18.10;9.47;;;;;;;18.47;62.38;101552.13;828258;23;1008;-73
2022/10/29 00:23:56;;;;;;;16.80;9.18;;;;;;;18.47;62.35;101560.06;824628;23;976;-73
2022/10/29 00:24:17;;;;;;;17.75;9.68;;;;;;;18.45;62.21;101541.53;829524;23;970;-74
2022/10/29 00:24:38;;;;;;;18.90;9.65;;;;;;;18.45;62.44;101546.81;827948;23;1257;-73
2022/10/29 00:25:00;;;;;;;19.58;9.80;;;;;;;18.51;62.38;101556.56;827938;23;1320;-74
2022/10/29 00:25:21;;;;;;;16.48;9.35;;;;;;;18.44;62.44;101560.03;824083;23;1003;-73
2022/10/29 00:25:41;;;;;;;17.80;8.93;;;;;;;18.42;62.36;101551.19;827986;23;1086;-73
2022/10/29 00:26:03;;;;;;;20.73;8.77;;;;;;;18.38;62.50;101550.28;823990;23;1126;-73
2022/10/29 00:26:24;;;;;;;19.25;8.80;;;;;;;18.42;62.49;101554.75;823872;24;903;-73
2022/10/29 00:26:44;;;;;;;16.67;8.80;;;;;;;18.38;62.56;101546.78;825510;24;803;-73
2022/10/29 00:27:05;;;;;;;15.00;8.40;;;;;;;18.34;62.48;101546.72;825262;24;1095;-76
2022/10/29 00:27:26;;;;;;;17.33;8.85;;;;;;;18.39;62.60;101556.47;831853;23;1150;-73
2022/10/29 00:27:49;;;;;;;19.30;9.00;;;;;;;18.36;62.67;101555.59;827907;23;1212;-73
2022/10/29 00:28:10;;;;;;;19.13;9.10;;;;;;;18.31;62.50;101546.72;827841;23;1237;-73
2022/10/29 00:28:32;;;;;;;17.88;8.93;;;;;;;18.40;62.45;101559.13;825615;24;773;-73
2022/10/29 00:28:54;;;;;;;15.57;8.95;;;;;;;18.41;62.68;101555.63;825311;24;1958;-73
2022/10/29 00:29:15;;;;;;;14.20;8.60;;;;;;;18.36;62.39;101545.00;827807;23;1128;-73
2022/10/29 00:29:35;;;;;;;15.70;8.43;;;;;;;18.32;62.42;101540.56;832807;23;774;-73
2022/10/29 00:29:56;;;;;;;15.60;8.50;;;;;;;18.32;62.57;101553.78;832988;23;1074;-73
2022/10/29 00:30:17;;;;;;;15.82;8.73;;;;;;;18.30;62.54;101552.88;835872;23;1058;-73
2022/10/29 00:30:38;;;;;;;16.10;8.95;;;;;;;18.32;62.72;101559.06;831922;23;1358;-73
2022/10/29 00:31:09;;;;;;;15.73;8.65;;;;;;;18.25;62.69;101551.09;831556;23;1205;-73
2022/10/29 00:31:30;;;;;;;14.80;8.45;;;;;;;18.29;62.78;101561.69;833048;23;1191;-73
2022/10/29 00:31:50;;;;;;;13.98;8.73;;;;;;;18.24;62.78;101549.31;833130;23;819;-73
2022/10/29 00:32:11;;;;;;;14.83;8.90;;;;;;;18.20;62.82;101545.75;831893;23;1020;-73
2022/10/29 00:32:31;;;;;;;15.15;8.75;;;;;;;18.27;62.99;101562.53;830605;23;862;-73
2022/10/29 00:32:52;;;;;;;17.17;8.70;;;;;;;18.16;62.91;101552.78;827992;23;1034;-74
2022/10/29 00:33:13;;;;;;;18.50;8.93;;;;;;;18.13;63.06;101549.19;829421;23;974;-73
2022/10/29 00:33:34;;;;;;;19.02;9.00;;;;;;;18.11;62.75;101545.63;828026;23;1452;-73
2022/10/29 00:33:55;;;;;;;16.45;8.52;;;;;;;18.13;62.87;101554.47;829336;23;1040;-73
2022/10/29 00:34:15;;;;;;;14.18;8.50;;;;;;;18.14;63.02;101556.22;827988;23;1340;-73
2022/10/29 00:34:37;;;;;;;15.30;8.90;;;;;;;18.10;63.09;101550.03;830654;23;756;-73
2022/10/29 00:34:57;;;;;;;17.70;9.13;;;;;;;18.09;63.13;101543.00;831936;23;1090;-73
2022/10/29 00:35:18;;;;;;;20.20;9.00;;;;;;;18.12;63.28;101553.56;832426;23;1312;-73
2022/10/29 00:35:38;;;;;;;18.75;8.95;;;;;;;18.10;63.18;101544.75;837266;23;747;-73
2022/10/29 00:36:02;;;;;;;19.33;9.40;;;;;;;18.09;63.14;101551.78;837236;23;993;-74
2022/10/29 00:36:26;;;;;;;17.90;9.27;;;;;;;18.06;63.35;101543.84;835855;23;1260;-73
2022/10/29 00:36:47;;;;;;;18.05;9.02;;;;;;;18.05;63.35;101542.06;835676;23;1479;-73
2022/10/29 00:37:08;;;;;;;17.85;8.82;;;;;;;18.07;63.24;101542.09;831874;23;1267;-72
2022/10/29 00:37:28;;;;;;;15.70;8.60;;;;;;;18.07;63.25;101545.59;833435;23;748;-73
2022/10/29 00:37:49;;;;;;;14.73;8.85;;;;;;;18.07;63.22;101550.03;833337;23;740;-73
2022/10/29 00:38:10;;;;;;;13.00;9.07;;;;;;;18.10;63.11;101560.59;829296;23;1137;-73
2022/10/29 00:38:32;;;;;;;13.82;9.68;;;;;;;18.03;63.31;101543.81;829879;23;783;-73
2022/10/29 00:38:53;;;;;;;15.70;9.70;;;;;;;18.00;63.23;101538.50;833903;23;1065;-73
2022/10/29 00:39:15;;;;;;;16.65;9.25;;;;;;;18.02;63.29;101542.03;837312;23;997;-74
2022/10/29 00:39:37;;;;;;;18.83;9.52;;;;;;;17.99;63.15;101539.38;835376;23;1305;-73
2022/10/29 00:39:58;;;;;;;21.55;9.75;;;;;;;18.02;63.32;101549.94;835583;23;1083;-73
2022/10/29 00:40:19;;;;;;;19.33;9.55;;;;;;;18.02;63.43;101546.44;833167;23;1073;-73
2022/10/29 00:40:40;;;;;;;17.35;9.18;;;;;;;17.99;63.30;101536.72;827983;23;1215;-73
2022/10/29 00:41:02;;;;;;;15.70;8.77;;;;;;;18.06;63.34;101554.41;829343;23;1162;-72
2022/10/29 00:41:27;;;;;;;16.17;8.80;;;;;;;18.03;63.44;101542.94;829223;23;815;-73
2022/10/29 00:41:48;;;;;;;13.68;8.68;;;;;;;18.03;63.52;101549.09;829161;23;1145;-73
2022/10/29 00:42:14;;;;;;;15.73;8.87;;;;;;;18.02;63.29;101539.38;825777;23;1184;-72
2022/10/29 00:42:36;;;;;;;17.20;8.90;;;;;;;18.03;63.30;101546.47;829939;23;1323;-73
2022/10/29 00:43:14;;;;;;;16.60;8.60;;;;;;;18.09;63.22;101554.41;827819;23;1373;-73
2022/10/29 00:43:36;;;;;;;14.60;8.43;;;;;;;18.09;63.22;101559.69;829224;23;748;-72
2022/10/29 00:44:22;;;;;;;15.02;8.43;;;;;;;18.14;63.21;101564.16;827903;23;1327;-73
2022/10/29 00:44:43;;;;;;;18.98;8.82;;;;;;;18.07;63.12;101558.81;833869;23;795;-73
2022/10/29 00:45:04;;;;;;;19.73;9.57;;;;;;;18.13;63.07;101559.75;831601;23;1342;-72
2022/10/29 00:45:26;;;;;;;16.05;9.30;;;;;;;18.07;63.06;101561.44;831857;23;1286;-73
2022/10/29 00:45:56;;;;;;;16.60;9.60;;;;;;;18.15;63.19;101576.53;825784;23;1262;-73
2022/10/29 00:46:22;;;;;;;17.45;9.32;;;;;;;18.18;63.23;101571.25;823964;24;932;-73
2022/10/29 00:46:47;;;;;;;16.10;9.10;;;;;;;18.08;63.18;101565.88;823948;23;913;-73
2022/10/29 00:47:18;;;;;;;16.90;9.20;;;;;;;18.12;63.25;101565.91;823835;23;1180;-73
2022/10/29 00:47:39;;;;;;;19.17;9.55;;;;;;;18.08;63.42;101555.28;826265;23;861;-73
2022/10/29 00:47:59;;;;;;;17.63;9.05;;;;;;;18.14;63.32;101562.41;829587;23;1100;-73
2022/10/29 00:48:23;;;;;;;16.70;9.00;;;;;;;18.17;63.45;101569.50;833334;23;1179;-73
2022/10/29 00:48:48;;;;;;;20.10;8.57;;;;;;;18.16;63.28;101565.09;837177;23;878;-73
2022/10/29 00:49:10;;;;;;;21.48;9.00;;;;;;;18.19;63.41;101573.06;837269;23;1175;-73
2022/10/29 00:49:33;;;;;;;21.00;9.77;;;;;;;18.17;63.31;101559.81;837021;23;756;-73
2022/10/29 00:50:02;;;;;;;20.48;10.02;;;;;;;18.16;63.44;101554.53;836839;23;1116;-73
2022/10/29 00:50:23;;;;;;;16.50;9.60;;;;;;;18.21;63.49;101563.38;837209;23;858;-72
2022/10/29 00:50:46;;;;;;;18.15;9.40;;;;;;;18.17;63.46;101554.53;829409;23;768;-73
2022/10/29 00:51:10;;;;;;;22.35;10.00;;;;;;;18.24;63.38;101562.53;820081;24;1103;-73
2022/10/29 00:51:31;;;;;;;22.98;10.07;;;;;;;18.25;63.50;101554.59;827658;23;1202;-73
2022/10/29 00:51:53;;;;;;;22.48;9.95;;;;;;;18.21;63.37;101555.44;831327;23;1563;-73
2022/10/29 00:52:16;;;;;;;22.08;9.70;;;;;;;18.30;63.40;101563.44;831910;23;1094;-73
2022/10/29 00:52:42;;;;;;;19.48;9.38;;;;;;;18.26;63.11;101559.00;827811;23;1228;-75
2022/10/29 00:53:03;;;;;;;15.95;9.20;;;;;;;18.32;63.30;101572.28;827658;23;1093;-73
2022/10/29 00:53:41;;;;;;;15.85;9.15;;;;;;;18.25;63.27;101548.44;825519;24;807;-73
2022/10/29 00:54:06;;;;;;;17.30;9.23;;;;;;;18.32;63.15;101561.69;823918;24;1105;-74
2022/10/29 00:54:31;;;;;;;18.67;9.10;;;;;;;18.31;63.01;101554.66;820183;24;1263;-73
2022/10/29 00:54:54;;;;;;;16.42;8.60;;;;;;;18.33;62.96;101555.53;823913;24;1241;-74
2022/10/29 00:55:15;;;;;;;15.27;8.50;;;;;;;18.37;62.93;101564.38;827928;23;1163;-73
2022/10/29 00:55:36;;;;;;;17.20;9.10;;;;;;;18.34;63.05;101565.22;831927;23;1303;-73
2022/10/29 00:55:58;;;;;;;20.25;9.35;;;;;;;18.26;63.06;101551.06;831822;23;1044;-74
2022/10/29 00:56:20;;;;;;;19.90;9.55;;;;;;;18.26;63.04;101561.63;824138;24;1097;-74
2022/10/29 00:57:06;;;;;;;16.65;8.90;;;;;;;18.33;63.19;101571.38;824089;24;1285;-74
2022/10/29 00:57:39;;;;;;;14.70;8.65;;;;;;;18.23;62.96;101556.34;831830;23;1179;-73
2022/10/29 00:58:00;;;;;;;15.57;8.65;;;;;;;18.27;63.00;101568.72;831554;23;1260;-73
2022/10/29 00:58:21;;;;;;;15.23;8.80;;;;;;;18.30;62.92;101571.38;835678;23;1436;-73
2022/10/29 00:58:44;;;;;;;13.40;9.07;;;;;;;18.27;62.93;101558.16;827839;23;885;-73
2022/10/29 00:59:06;;;;;;;15.73;9.25;;;;;;;18.31;62.94;101581.06;821353;24;1107;-73
2022/10/29 00:59:27;;;;;;;16.30;9.20;;;;;;;18.29;62.86;101572.25;821322;24;939;-73
2022/10/29 00:59:49;;;;;;;13.95;8.82;;;;;;;18.28;62.82;101569.59;823534;24;1167;-73
2022/10/29 01:00:10;;;;;;;15.30;9.30;;;;;;;18.27;63.14;101563.44;829025;23;1157;-73
2022/10/29 01:00:33;;;;;;;18.17;9.40;;;;;;;18.27;62.97;101568.72;825686;23;1532;-73
2022/10/29 01:00:54;;;;;;;18.27;9.27;;;;;;;18.29;62.83;101566.97;831072;23;1086;-73
2022/10/29 01:01:15;;;;;;;18.03;9.20;;;;;;;18.31;63.01;101564.34;833237;23;958;-74
2022/10/29 01:01:37;;;;;;;15.68;9.48;;;;;;;18.32;63.03;101577.56;831934;23;1135;-73
2022/10/29 01:01:58;;;;;;;16.55;9.65;;;;;;;18.38;62.90;101575.84;834596;23;965;-73
2022/10/29 01:02:20;;;;;;;16.60;9.23;;;;;;;18.30;63.08;101566.09;832972;23;1119;-73
2022/10/29 01:02:43;;;;;;;17.23;9.23;;;;;;;18.28;63.02;101562.56;831975;23;910;-73
2022/10/29 01:03:05;;;;;;;14.50;8.40;;;;;;;18.30;62.88;101570.47;831602;23;1155;-74
2022/10/29 01:03:26;;;;;;;13.15;8.48;;;;;;;18.27;63.03;101562.53;831909;23;1306;-73
2022/10/29 01:03:47;;;;;;;12.52;8.23;;;;;;;18.34;63.15;101575.81;827933;23;1169;-73
2022/10/29 01:04:09;;;;;;;14.32;8.50;;;;;;;18.34;63.02;101580.22;833271;23;982;-74
2022/10/29 01:04:30;;;;;;;14.38;8.65;;;;;;;18.28;62.89;101573.13;831823;23;1121;-74
2022/10/29 01:04:52;;;;;;;20.60;8.95;;;;;;;18.25;62.91;101567.81;831804;23;1139;-73
2022/10/29 01:05:17;;;;;;;21.38;8.68;;;;;;;18.31;62.94;101583.72;833135;23;1011;-74
2022/10/29 01:05:39;;;;;;;19.75;8.68;;;;;;;18.31;63.11;101574.91;833132;23;838;-74
2022/10/29 01:06:02;;;;;;;19.05;8.82;;;;;;;18.24;63.25;101562.53;833165;23;927;-74
2022/10/29 01:06:23;;;;;;;15.57;8.77;;;;;;;18.29;62.92;101572.25;831458;23;1275;-74
2022/10/29 01:06:45;;;;;;;13.40;8.70;;;;;;;18.24;62.98;101562.53;827920;23;969;-73
2022/10/29 01:07:07;;;;;;;13.25;8.73;;;;;;;18.26;63.12;101568.69;830524;23;1145;-73
2022/10/29 01:07:28;;;;;;;12.50;8.45;;;;;;;18.26;63.15;101566.91;831767;23;1515;-74
2022/10/29 01:07:53;;;;;;;16.88;9.07;;;;;;;18.36;63.02;101578.47;833321;23;830;-73
2022/10/29 01:08:15;;;;;;;17.92;9.27;;;;;;;18.30;62.95;101562.56;832974;23;1134;-73
2022/10/29 01:08:36;;;;;;;19.67;9.60;;;;;;;18.26;62.89;101561.63;830039;23;1239;-73
2022/10/29 01:08:56;;;;;;;17.43;9.30;;;;;;;18.28;62.78;101565.22;826208;23;1907;-73
2022/10/29 01:09:17;;;;;;;18.02;9.00;;;;;;;18.29;62.72;101561.69;825544;23;1225;-74
2022/10/29 01:09:38;;;;;;;16.88;8.90;;;;;;;18.29;62.76;101560.78;828951;23;815;-73
2022/10/29 01:09:59;;;;;;;13.68;8.70;;;;;;;18.26;62.82;101566.06;819809;24;972;-74
2022/10/29 01:10:31;;;;;;;13.25;8.50;;;;;;;18.21;62.64;101558.97;822205;24;1174;-73
2022/10/29 01:10:57;;;;;;;14.80;8.75;;;;;;;18.21;63.09;101566.03;825690;23;1084;-73
2022/10/29 01:11:26;;;;;;;15.80;8.50;;;;;;;18.27;63.14;101571.38;824137;24;1966;-73
2022/10/29 01:11:52;;;;;;;17.02;8.35;;;;;;;18.27;62.98;101563.44;826535;23;843;-73
2022/10/29 01:12:38;;;;;;;18.15;8.68;;;;;;;18.28;63.06;101570.50;833177;23;1028;-73
2022/10/29 01:13:39;;;;;;;16.45;9.07;;;;;;;18.21;63.14;101558.97;831835;23;1299;-73
2022/10/29 01:14:12;;;;;;;16.80;9.00;;;;;;;18.28;62.92;101570.50;831818;23;1108;-74
2022/10/29 01:14:38;;;;;;;16.17;8.93;;;;;;;18.29;63.07;101566.06;827733;23;818;-73
2022/10/29 01:15:20;;;;;;;17.98;8.80;;;;;;;18.29;63.00;101572.25;827671;23;1536;-73
2022/10/29 01:15:57;;;;;;;17.08;8.30;;;;;;;18.24;63.23;101568.69;823995;24;881;-73
2022/10/29 01:16:33;;;;;;;18.40;8.38;;;;;;;18.23;63.29;101572.19;829884;23;1014;-73
2022/10/29 01:16:59;;;;;;;15.80;8.80;;;;;;;18.31;63.27;101570.50;826374;23;1075;-73
2022/10/29 01:17:50;;;;;;;14.30;9.00;;;;;;;18.49;62.72;101568.88;829177;23;962;-73
2022/10/29 01:18:10;;;;;;;16.30;9.05;;;;;;;18.35;62.60;101567.03;833024;23;1171;-74
2022/10/29 01:18:44;;;;;;;16.25;8.70;;;;;;;18.25;62.92;101559.88;831800;23;1555;-73
2022/10/29 01:19:17;;;;;;;13.82;8.50;;;;;;;18.25;63.04;101559.88;830740;23;1369;-74
2022/10/29 01:19:56;;;;;;;12.52;8.75;;;;;;;18.25;63.14;101569.56;828856;23;794;-74
2022/10/29 01:20:33;;;;;;;13.25;9.02;;;;;;;18.12;63.34;101553.56;834057;23;1004;-73
2022/10/29 01:21:22;;;;;;;13.15;8.85;;;;;;;18.17;63.40;101562.47;833300;23;1343;-73
2022/10/29 01:22:00;;;;;;;16.00;8.40;;;;;;;18.23;63.31;101556.34;835842;23;1324;-73
2022/10/29 01:22:26;;;;;;;14.13;8.50;;;;;;;18.57;62.54;101566.31;832015;23;1959;-74
2022/10/29 01:23:24;;;;;;;15.88;8.48;;;;;;;18.73;61.74;101556.69;824211;24;2020;-73
2022/10/29 01:24:03;;;;;;;16.40;9.73;;;;;;;18.77;61.54;101555.88;831851;23;812;-73
2022/10/29 01:24:53;;;;;;;16.23;9.70;;;;;;;18.79;61.24;101551.47;832294;23;897;-73
2022/10/29 01:25:46;;;;;;;25.20;9.40;;;;;;;18.60;61.70;101554.00;836021;23;1284;-75
2022/10/29 01:26:57;;;;;;;29.85;9.35;;;;;;;18.62;61.66;101548.69;828289;23;1039;-73
2022/10/29 01:27:37;;;;;;;14.52;8.73;;;;;;;18.74;61.42;101553.19;820370;24;1340;-73
2022/10/29 01:27:59;;;;;;;14.93;8.77;;;;;;;18.49;61.96;101553.00;822682;24;1234;-74
2022/10/29 01:28:49;;;;;;;14.88;8.60;;;;;;;18.36;62.21;101545.00;820727;24;1151;-73
2022/10/29 01:29:44;;;;;;;12.05;8.27;;;;;;;18.23;62.83;101548.41;820365;24;1444;-73
2022/10/29 01:30:13;;;;;;;15.27;9.40;;;;;;;18.38;62.58;101533.56;822744;23;1139;-73
2022/10/29 01:31:13;;;;;;;15.68;9.32;;;;;;;18.59;61.92;101548.69;828148;23;1410;-73
2022/10/29 01:31:59;;;;;;;15.75;9.32;;;;;;;18.22;62.90;101551.94;827820;23;1120;-73
2022/10/29 01:32:44;;;;;;;17.35;9.52;;;;;;;18.11;63.11;101540.34;823130;24;1105;-73
2022/10/29 01:33:31;;;;;;;15.45;8.55;;;;;;;18.07;63.29;101539.47;821553;24;1133;-73
2022/10/29 01:34:04;;;;;;;16.98;8.80;;;;;;;18.07;63.35;101539.47;816386;24;1123;-73
2022/10/29 01:34:39;;;;;;;17.50;8.75;;;;;;;17.98;63.38;101529.69;820285;24;839;-73
2022/10/29 01:35:17;;;;;;;16.85;8.73;;;;;;;17.99;63.30;101531.44;816259;24;957;-73
2022/10/29 01:36:00;;;;;;;17.42;8.50;;;;;;;18.08;63.46;101541.22;813277;24;932;-75
2022/10/29 01:36:31;;;;;;;15.85;8.80;;;;;;;18.07;63.42;101545.59;824789;23;1458;-74
2022/10/29 01:37:01;;;;;;;17.08;9.20;;;;;;;17.96;63.36;101523.50;826207;23;1053;-74
2022/10/29 01:37:52;;;;;;;18.63;9.20;;;;;;;17.96;63.74;101536.72;828506;23;1360;-73
2022/10/29 01:38:34;;;;;;;17.02;9.10;;;;;;;17.98;63.64;101542.88;833899;23;1041;-73
2022/10/29 01:39:04;;;;;;;14.88;9.52;;;;;;;17.96;63.65;101547.28;841199;23;1068;-73
2022/10/29 01:39:49;;;;;;;12.50;8.52;;;;;;;17.94;63.74;101546.34;841536;23;854;-72
2022/10/29 01:40:24;;;;;;;13.68;8.20;;;;;;;17.89;63.70;101541.03;841695;23;1637;-73
2022/10/29 01:40:56;;;;;;;14.77;8.75;;;;;;;17.86;63.91;101541.00;840039;23;831;-73
2022/10/29 01:41:33;;;;;;;15.20;8.80;;;;;;;17.91;63.85;101546.34;841197;23;1080;-73
2022/10/29 01:42:06;;;;;;;17.13;8.60;;;;;;;17.84;63.92;101540.13;837100;23;982;-73
2022/10/29 01:42:39;;;;;;;16.92;8.50;;;;;;;17.83;63.96;101540.09;831933;23;1444;-73
2022/10/29 01:43:11;;;;;;;12.63;8.32;;;;;;;17.81;64.10;101535.69;828071;23;1217;-73
2022/10/29 01:43:44;;;;;;;14.93;8.60;;;;;;;17.76;64.13;101528.59;824105;24;869;-73
2022/10/29 01:44:16;;;;;;;15.95;8.50;;;;;;;17.78;64.15;101538.28;821725;24;1156;-73
2022/10/29 01:44:47;;;;;;;15.55;8.98;;;;;;;17.78;64.12;101522.44;827861;23;1895;-73
2022/10/29 01:45:15;;;;;;;16.30;9.68;;;;;;;17.74;64.12;101541.78;833187;23;1177;-73
2022/10/29 01:45:44;;;;;;;16.13;10.10;;;;;;;17.55;64.50;101524.84;835773;23;1473;-73
2022/10/29 01:46:42;;;;;;;16.15;9.60;;;;;;;17.53;64.59;101522.19;837149;23;1093;-73
2022/10/29 01:47:08;;;;;;;18.33;10.13;;;;;;;17.56;64.66;101528.38;837208;23;1144;-74
2022/10/29 01:47:35;;;;;;;18.38;10.18;;;;;;;17.48;64.97;101529.19;831979;23;1209;-73
2022/10/29 01:48:06;;;;;;;16.30;9.32;;;;;;;17.49;64.77;101530.94;831952;23;1102;-74
2022/10/29 01:48:33;;;;;;;22.30;9.60;;;;;;;17.41;65.12;101516.78;828207;23;1244;-73
2022/10/29 01:48:59;;;;;;;21.90;9.40;;;;;;;17.44;65.07;101522.09;825953;23;1926;-73
2022/10/29 01:49:27;;;;;;;17.55;9.05;;;;;;;17.54;65.20;101534.50;830039;23;1446;-73
2022/10/29 01:49:59;;;;;;;17.70;8.90;;;;;;;17.50;65.00;101526.53;829154;23;839;-73
2022/10/29 01:50:22;;;;;;;16.88;8.68;;;;;;;17.43;65.11;101509.78;831601;23;1109;-73
2022/10/29 01:50:48;;;;;;;13.95;8.20;;;;;;;17.46;64.98;101515.06;831988;23;1202;-73
2022/10/29 01:51:19;;;;;;;12.98;8.13;;;;;;;17.50;65.04;101527.44;830699;23;1003;-73
2022/10/29 01:51:42;;;;;;;17.42;8.60;;;;;;;17.50;64.86;101524.81;828110;23;1393;-73
2022/10/29 01:52:05;;;;;;;17.20;9.05;;;;;;;17.51;64.93;101517.75;827762;23;1203;-74
2022/10/29 01:52:31;;;;;;;15.95;9.40;;;;;;;17.47;64.93;101514.22;825740;24;747;-73
2022/10/29 01:52:54;;;;;;;13.90;9.18;;;;;;;17.48;65.05;101513.34;824176;24;1939;-73
2022/10/29 01:53:16;;;;;;;16.23;9.40;;;;;;;17.45;64.94;101510.66;824308;24;1316;-74
2022/10/29 01:53:37;;;;;;;15.95;9.07;;;;;;;17.44;64.92;101511.53;824035;23;1356;-74
2022/10/29 01:54:01;;;;;;;17.63;9.43;;;;;;;17.46;64.85;101520.34;820359;24;1162;-73
2022/10/29 01:54:23;;;;;;;16.42;9.50;;;;;;;17.43;65.01;101517.69;824148;24;1249;-74
2022/10/29 01:54:46;;;;;;;17.73;9.32;;;;;;;17.46;64.79;101525.63;824406;24;1399;-74
2022/10/29 01:55:08;;;;;;;15.85;9.07;;;;;;;17.45;64.90;101523.84;820111;24;1456;-73
2022/10/29 01:55:34;;;;;;;16.67;9.10;;;;;;;17.43;64.95;101525.59;820431;24;1272;-74
2022/10/29 01:55:55;;;;;;;17.10;9.10;;;;;;;17.40;64.94;101512.38;824224;23;1884;-74
2022/10/29 01:56:15;;;;;;;17.77;9.40;;;;;;;17.50;65.10;101532.72;824304;24;1002;-73
2022/10/29 01:56:36;;;;;;;19.70;9.67;;;;;;;17.43;65.17;101520.31;825838;24;752;-73
2022/10/29 01:56:58;;;;;;;17.77;9.48;;;;;;;17.40;65.01;101515.88;824221;23;954;-73
2022/10/29 01:57:37;;;;;;;14.35;9.30;;;;;;;17.44;64.91;101522.09;827519;23;986;-73
2022/10/29 01:57:58;;;;;;;15.68;8.88;;;;;;;17.46;64.99;101517.69;828530;23;1130;-74
2022/10/29 01:58:19;;;;;;;16.30;8.80;;;;;;;17.51;64.89;101525.66;828456;23;1169;-73
2022/10/29 01:58:45;;;;;;;17.17;8.83;;;;;;;17.47;64.78;101521.25;828294;23;1021;-73
2022/10/29 01:59:11;;;;;;;19.77;8.90;;;;;;;17.47;64.98;101522.13;825614;24;1110;-73
2022/10/29 01:59:32;;;;;;;21.00;9.20;;;;;;;17.42;65.09;101517.66;821691;24;807;-74
2022/10/29 01:59:53;;;;;;;17.48;9.30;;;;;;;17.40;65.08;101515.03;823958;23;1138;-73
2022/10/29 02:00:18;;;;;;;15.30;8.90;;;;;;;17.37;65.11;101514.97;824099;24;1266;-73
2022/10/29 02:00:57;;;;;;;15.50;9.20;;;;;;;17.44;65.27;101522.09;824243;24;1481;-73
2022/10/29 02:01:50;;;;;;;17.33;9.30;;;;;;;17.34;65.35;101514.94;820240;24;1530;-73
2022/10/29 02:02:41;;;;;;;20.83;9.18;;;;;;;17.30;65.25;101508.75;830841;23;1927;-73
2022/10/29 02:03:38;;;;;;;17.88;9.90;;;;;;;17.35;65.39;101522.88;821591;24;1176;-73
2022/10/29 02:04:48;;;;;;;12.88;8.68;;;;;;;17.27;65.48;101516.59;825371;23;1161;-73
2022/10/29 02:05:08;;;;;;;18.15;9.20;;;;;;;17.33;65.54;101532.50;827642;23;1332;-73
2022/10/29 02:05:42;;;;;;;16.23;9.00;;;;;;;17.21;65.47;101501.59;828228;23;834;-74
2022/10/29 02:06:05;;;;;;;17.75;9.32;;;;;;;17.32;65.53;101522.84;831762;23;1144;-74